Stickney, South Dakota
Current Conditions -  °F | °C
As of 12:53 AM on Friday 31 Oct 2014 (Local Time) from KMHE Reporting Station
Clear Clear  
Wind Chill: 18°   Ceiling: Unl
Heat Index: 26°   Visibility: 10mi
Dew Point: 20°   Wind: 8mph
Humidity: 78%   Direction: 320°NW
Pressure: 30.56"   Gusts: NA
Location:  43.59°N, 98.44°W
Report Text: KMHE 310553Z AUTO 32007KT 10SM CLR M03/M07 A3056 RMK AO2 SLP362 T10331067 10056 21033 400941033 51021
Loading
Personal Weather Stations






























Interactive Weather Map
Tropical Storm Tracking
New forecast layout! Learn more

10-Day Weather Forecast

Advertisements
Track Severe Weather on mobile